Time;durP1;ratioP1;P1;durP2;ratioP2;P2;SDS_P1;SDS_P2;PMS_P1;PMS_P2;Temp;Humidity;BMP_temperature;BMP_pressure;BME280_temperature;BME280_humidity;BME280_pressure;Samples;Min_cycle;Max_cycle;Signal;HPM_P1;HPM_P2
2021/12/15 00:01:35;;;;;;;58.92;34.43;;;;;;;;;;1872832;76;21051;-41
2021/12/15 00:04:04;;;;;;;60.65;32.58;;;;;;;;;;1872744;76;21105;-40
2021/12/15 00:06:33;;;;;;;62.62;31.55;;;;;;;;;;1872808;76;21106;-40
2021/12/15 00:09:03;;;;;;;65.57;32.83;;;;;;;;;;1872809;77;21031;-41
2021/12/15 00:11:36;;;;;;;62.78;33.45;;;;;;;;;;1872769;77;21492;-41
2021/12/15 00:14:04;;;;;;;60.83;32.60;;;;;;;;;;1872728;76;21496;-41
2021/12/15 00:16:32;;;;;;;55.35;30.75;;;;;;;;;;1872801;76;21097;-41
2021/12/15 00:19:01;;;;;;;46.75;29.65;;;;;;;;;;1872750;76;21096;-41
2021/12/15 00:21:30;;;;;;;61.30;31.75;;;;;;;;;;1872710;75;21019;-41
2021/12/15 00:23:58;;;;;;;56.95;30.92;;;;;;;;;;1872683;75;21104;-40
2021/12/15 00:26:27;;;;;;;55.25;29.23;;;;;;;;;;1872747;76;20999;-41
2021/12/15 00:28:57;;;;;;;59.25;30.72;;;;;;;;;;1872726;77;21035;-41
2021/12/15 00:31:28;;;;;;;52.33;29.37;;;;;;;;;;1872838;77;21055;-41
2021/12/15 00:33:56;;;;;;;53.75;28.25;;;;;;;;;;1888528;75;21527;-41
2021/12/15 00:36:25;;;;;;;56.85;31.02;;;;;;;;;;1891713;76;21018;-41
2021/12/15 00:38:54;;;;;;;50.65;29.25;;;;;;;;;;1891731;76;21038;-41
2021/12/15 00:41:23;;;;;;;57.33;28.65;;;;;;;;;;1891838;76;21104;-41
2021/12/15 00:43:52;;;;;;;56.50;28.92;;;;;;;;;;1891717;76;21100;-40
2021/12/15 00:46:21;;;;;;;58.92;29.67;;;;;;;;;;1891716;76;21026;-41
2021/12/15 00:48:50;;;;;;;52.90;27.98;;;;;;;;;;1891677;76;21136;-41
2021/12/15 00:51:19;;;;;;;60.67;30.62;;;;;;;;;;1891739;76;21038;-41
2021/12/15 00:53:47;;;;;;;55.52;28.50;;;;;;;;;;1891766;76;21100;-41
2021/12/15 00:56:16;;;;;;;62.23;29.00;;;;;;;;;;1891836;76;20998;-41
2021/12/15 00:58:45;;;;;;;46.85;26.45;;;;;;;;;;1891732;76;21104;-41
2021/12/15 01:01:14;;;;;;;53.70;27.67;;;;;;;;;;1891742;76;21089;-41
2021/12/15 01:03:43;;;;;;;49.38;28.42;;;;;;;;;;1891863;76;21153;-41
2021/12/15 01:06:13;;;;;;;55.65;29.75;;;;;;;;;;1891843;76;21041;-40
2021/12/15 01:08:45;;;;;;;59.88;30.97;;;;;;;;;;1891738;76;21026;-41
2021/12/15 01:11:25;;;;;;;56.75;30.45;;;;;;;;;;1891818;76;21527;-40
2021/12/15 01:22:03;;;;;;;51.00;27.55;;;;;;;;;;1891907;76;21046;-41
2021/12/15 01:24:32;;;;;;;54.93;29.35;;;;;;;;;;1891693;76;21016;-41
2021/12/15 01:27:01;;;;;;;53.42;27.77;;;;;;;;;;1891761;76;21043;-41
2021/12/15 01:29:29;;;;;;;51.77;30.27;;;;;;;;;;1891719;76;21504;-40
2021/12/15 01:31:58;;;;;;;62.33;29.40;;;;;;;;;;1891724;76;21100;-41
2021/12/15 01:34:28;;;;;;;56.63;29.67;;;;;;;;;;1891441;75;21050;-40
2021/12/15 01:36:57;;;;;;;55.95;27.80;;;;;;;;;;1891460;76;21034;-41
2021/12/15 01:39:27;;;;;;;51.92;28.52;;;;;;;;;;1891472;76;21026;-40
2021/12/15 01:41:56;;;;;;;53.33;29.98;;;;;;;;;;1891593;76;21042;-41
2021/12/15 01:46:58;;;;;;;54.30;29.70;;;;;;;;;;1891505;76;21183;-41
2021/12/15 01:49:36;;;;;;;58.05;29.30;;;;;;;;;;1891615;76;21074;-41
2021/12/15 01:52:06;;;;;;;52.95;27.87;;;;;;;;;;1891570;76;21112;-41
2021/12/15 01:54:36;;;;;;;57.78;29.32;;;;;;;;;;1891543;76;20999;-41
2021/12/15 01:57:06;;;;;;;48.83;27.93;;;;;;;;;;1891300;75;21027;-41
2021/12/15 01:59:35;;;;;;;50.60;28.57;;;;;;;;;;1891586;76;20994;-41
2021/12/15 02:02:04;;;;;;;60.38;29.27;;;;;;;;;;1891444;76;21032;-40
2021/12/15 02:04:33;;;;;;;50.43;29.10;;;;;;;;;;1891586;76;21034;-41
2021/12/15 02:07:04;;;;;;;57.20;30.12;;;;;;;;;;1891556;75;21054;-42
2021/12/15 02:10:01;;;;;;;55.17;28.70;;;;;;;;;;1891492;76;21018;-40
2021/12/15 02:12:03;;;;;;;54.60;29.90;;;;;;;;;;1888455;76;21562;-41
2021/12/15 02:14:33;;;;;;;60.85;30.45;;;;;;;;;;1891427;76;21094;-40
2021/12/15 02:17:02;;;;;;;57.98;31.35;;;;;;;;;;1891692;75;21472;-41
2021/12/15 02:19:31;;;;;;;53.70;28.83;;;;;;;;;;1891476;76;21042;-40
2021/12/15 02:22:00;;;;;;;49.00;29.18;;;;;;;;;;1891475;75;21064;-40
2021/12/15 02:24:29;;;;;;;49.03;28.10;;;;;;;;;;1891488;76;21035;-41
2021/12/15 02:27:00;;;;;;;52.88;29.63;;;;;;;;;;1891552;75;21038;-41
2021/12/15 02:29:32;;;;;;;46.18;27.75;;;;;;;;;;1891524;76;21500;-41
2021/12/15 02:34:54;;;;;;;52.30;29.05;;;;;;;;;;1891651;75;21070;-41
2021/12/15 02:37:17;;;;;;;52.93;30.55;;;;;;;;;;1889183;76;21022;-40
2021/12/15 02:39:54;;;;;;;55.25;28.57;;;;;;;;;;1891859;76;21054;-41
2021/12/15 02:42:24;;;;;;;56.45;28.83;;;;;;;;;;1891900;76;21034;-41
2021/12/15 02:44:53;;;;;;;53.10;30.17;;;;;;;;;;1891851;76;21457;-41
2021/12/15 02:47:23;;;;;;;54.65;30.30;;;;;;;;;;1891852;76;21030;-41
2021/12/15 02:49:53;;;;;;;56.18;31.55;;;;;;;;;;1891752;76;21026;-42
2021/12/15 02:52:22;;;;;;;50.45;28.23;;;;;;;;;;1891846;76;21030;-41
2021/12/15 02:54:51;;;;;;;48.33;27.48;;;;;;;;;;1891898;76;21108;-41
2021/12/15 02:57:20;;;;;;;52.43;29.57;;;;;;;;;;1891776;76;21074;-41
2021/12/15 03:00:01;;;;;;;54.42;29.52;;;;;;;;;;1891939;76;21015;-41
2021/12/15 03:05:24;;;;;;;72.67;39.30;;;;;;;;;;1891807;76;21492;-41
2021/12/15 03:07:58;;;;;;;148.15;75.03;;;;;;;;;;1889434;75;21082;-41
2021/12/15 03:15:49;;;;;;;62.58;35.70;;;;;;;;;;1891788;76;21112;-40
2021/12/15 03:18:19;;;;;;;54.35;30.92;;;;;;;;;;1891782;76;21092;-40
2021/12/15 03:20:50;;;;;;;55.67;31.73;;;;;;;;;;1891722;76;21508;-41
2021/12/15 03:23:20;;;;;;;54.93;32.63;;;;;;;;;;1891723;76;21081;-42
2021/12/15 03:25:49;;;;;;;49.85;31.23;;;;;;;;;;1891384;75;21088;-40
2021/12/15 03:36:40;;;;;;;63.50;33.58;;;;;;;;;;1891641;76;21485;-41
2021/12/15 03:39:10;;;;;;;65.47;36.35;;;;;;;;;;1891198;75;21492;-42
2021/12/15 03:41:39;;;;;;;55.65;32.65;;;;;;;;;;1891571;76;21022;-40
2021/12/15 03:44:08;;;;;;;50.35;27.60;;;;;;;;;;1891505;76;21006;-40
2021/12/15 03:46:36;;;;;;;56.48;30.32;;;;;;;;;;1891676;76;21031;-41
2021/12/15 03:49:05;;;;;;;54.53;29.32;;;;;;;;;;1891403;76;21019;-40
2021/12/15 03:51:34;;;;;;;53.35;30.45;;;;;;;;;;1891578;76;21027;-40
2021/12/15 03:54:03;;;;;;;66.82;31.73;;;;;;;;;;1891505;76;21034;-40
2021/12/15 03:56:35;;;;;;;56.02;30.95;;;;;;;;;;1891550;76;21156;-41
2021/12/15 03:59:04;;;;;;;56.00;30.27;;;;;;;;;;1891441;76;21112;-40
2021/12/15 04:01:32;;;;;;;58.45;32.00;;;;;;;;;;1891450;76;21101;-40
2021/12/15 04:04:02;;;;;;;53.87;28.98;;;;;;;;;;1891553;76;21111;-41
2021/12/15 04:06:32;;;;;;;53.40;30.05;;;;;;;;;;1891522;76;21143;-41
2021/12/15 04:09:01;;;;;;;48.58;27.17;;;;;;;;;;1891464;76;21143;-41
2021/12/15 04:11:33;;;;;;;51.95;28.75;;;;;;;;;;1891501;76;21030;-41
2021/12/15 04:14:10;;;;;;;51.08;28.10;;;;;;;;;;1891447;75;21103;-40
2021/12/15 04:16:44;;;;;;;51.08;28.15;;;;;;;;;;1891534;76;21026;-41
2021/12/15 04:19:12;;;;;;;52.62;29.27;;;;;;;;;;1891266;75;21163;-40
2021/12/15 04:21:42;;;;;;;48.40;29.50;;;;;;;;;;1891343;76;21041;-40
2021/12/15 04:24:11;;;;;;;48.65;26.68;;;;;;;;;;1891394;76;21132;-41
2021/12/15 04:26:41;;;;;;;52.45;29.45;;;;;;;;;;1891489;76;21326;-40
2021/12/15 04:29:09;;;;;;;60.73;31.45;;;;;;;;;;1891434;76;21108;-41
2021/12/15 04:31:39;;;;;;;52.40;30.75;;;;;;;;;;1891415;76;21042;-41
2021/12/15 04:34:10;;;;;;;54.48;29.48;;;;;;;;;;1888331;75;21054;-41
2021/12/15 04:36:40;;;;;;;47.70;27.42;;;;;;;;;;1872795;77;21027;-40
2021/12/15 04:39:10;;;;;;;51.10;27.67;;;;;;;;;;1872785;77;21031;-41
2021/12/15 04:41:44;;;;;;;45.98;26.42;;;;;;;;;;1872724;75;21023;-42
2021/12/15 04:44:10;;;;;;;51.88;27.10;;;;;;;;;;1872523;76;21501;-41
2021/12/15 04:46:41;;;;;;;45.28;25.48;;;;;;;;;;1872696;77;21054;-41
2021/12/15 04:49:10;;;;;;;54.18;28.00;;;;;;;;;;1872789;76;21027;-42
2021/12/15 04:51:39;;;;;;;49.42;28.10;;;;;;;;;;1872819;77;21039;-43
2021/12/15 04:54:08;;;;;;;61.37;30.23;;;;;;;;;;1872693;77;21039;-41
2021/12/15 04:56:37;;;;;;;52.15;28.25;;;;;;;;;;1872812;76;21039;-41
2021/12/15 04:59:06;;;;;;;55.73;30.75;;;;;;;;;;1872622;77;21019;-41
2021/12/15 05:01:35;;;;;;;56.33;29.42;;;;;;;;;;1872823;77;21039;-41
2021/12/15 05:04:04;;;;;;;53.95;28.65;;;;;;;;;;1872807;77;21104;-42
2021/12/15 05:06:33;;;;;;;50.08;27.20;;;;;;;;;;1872780;77;21031;-42
2021/12/15 05:09:01;;;;;;;48.52;28.87;;;;;;;;;;1872768;77;21031;-43
2021/12/15 05:11:30;;;;;;;46.55;27.82;;;;;;;;;;1872679;76;21027;-42
2021/12/15 05:13:59;;;;;;;45.73;26.02;;;;;;;;;;1872757;76;21003;-42
2021/12/15 05:16:28;;;;;;;45.78;26.55;;;;;;;;;;1872859;77;21035;-41
2021/12/15 05:18:57;;;;;;;48.33;26.20;;;;;;;;;;1872758;77;21437;-41
2021/12/15 05:21:26;;;;;;;50.43;29.18;;;;;;;;;;1872689;77;21109;-43
2021/12/15 05:23:59;;;;;;;47.08;28.60;;;;;;;;;;1872690;75;21050;-42
2021/12/15 05:26:25;;;;;;;49.55;27.22;;;;;;;;;;1872545;76;21551;-42
2021/12/15 05:28:54;;;;;;;47.75;27.77;;;;;;;;;;1872684;76;21121;-41
2021/12/15 05:31:23;;;;;;;50.90;27.58;;;;;;;;;;1872748;77;21105;-43
2021/12/15 05:33:52;;;;;;;53.48;29.32;;;;;;;;;;1872601;76;21023;-41
2021/12/15 05:36:21;;;;;;;53.60;28.27;;;;;;;;;;1889360;75;21114;-42
2021/12/15 05:38:50;;;;;;;55.48;30.35;;;;;;;;;;1891413;75;21113;-42
2021/12/15 05:41:19;;;;;;;49.73;27.52;;;;;;;;;;1891455;76;21019;-42
2021/12/15 05:43:48;;;;;;;43.48;27.80;;;;;;;;;;1891474;76;21014;-43
2021/12/15 05:46:16;;;;;;;54.10;30.08;;;;;;;;;;1891434;76;21014;-43
2021/12/15 05:48:45;;;;;;;50.67;27.25;;;;;;;;;;1891358;76;21039;-41
2021/12/15 05:51:14;;;;;;;51.28;29.23;;;;;;;;;;1891366;75;21050;-42
2021/12/15 05:53:43;;;;;;;44.77;27.95;;;;;;;;;;1891367;76;21046;-42
2021/12/15 05:56:12;;;;;;;46.45;28.65;;;;;;;;;;1891343;75;21041;-41
2021/12/15 05:58:41;;;;;;;54.30;27.90;;;;;;;;;;1891431;76;21081;-41
2021/12/15 06:01:10;;;;;;;42.62;27.32;;;;;;;;;;1891272;76;21034;-41
2021/12/15 06:03:39;;;;;;;62.62;36.08;;;;;;;;;;1891318;75;21107;-42
2021/12/15 06:06:08;;;;;;;54.00;32.17;;;;;;;;;;1891503;75;21092;-41
2021/12/15 06:08:37;;;;;;;51.30;30.37;;;;;;;;;;1891297;76;21092;-41
2021/12/15 06:11:05;;;;;;;58.40;31.40;;;;;;;;;;1891499;76;21030;-41
2021/12/15 06:13:34;;;;;;;67.67;32.98;;;;;;;;;;1891454;76;21034;-41
2021/12/15 06:16:05;;;;;;;53.75;31.62;;;;;;;;;;1891360;76;21030;-42
2021/12/15 06:18:33;;;;;;;48.78;30.45;;;;;;;;;;1891449;76;21468;-42
2021/12/15 06:21:02;;;;;;;47.43;27.32;;;;;;;;;;1891332;76;21101;-41
2021/12/15 06:23:31;;;;;;;52.50;29.42;;;;;;;;;;1891417;76;21547;-41
2021/12/15 06:26:01;;;;;;;56.83;33.02;;;;;;;;;;1891414;75;21108;-42
2021/12/15 06:28:30;;;;;;;52.55;31.02;;;;;;;;;;1891496;76;21538;-42
2021/12/15 06:31:00;;;;;;;59.80;33.18;;;;;;;;;;1891570;76;21030;-41
2021/12/15 06:33:29;;;;;;;54.60;31.70;;;;;;;;;;1891598;75;21104;-41
2021/12/15 06:35:59;;;;;;;56.63;33.13;;;;;;;;;;1881539;75;21063;-41
2021/12/15 06:38:30;;;;;;;63.55;34.67;;;;;;;;;;1872697;77;21589;-42
2021/12/15 06:40:59;;;;;;;55.48;33.13;;;;;;;;;;1872950;77;21035;-41
2021/12/15 06:43:27;;;;;;;70.55;38.80;;;;;;;;;;1872786;77;21089;-42
2021/12/15 06:46:10;;;;;;;73.85;40.17;;;;;;;;;;1872744;77;21113;-42
2021/12/15 06:59:34;;;;;;;61.65;36.13;;;;;;;;;;1872801;75;21055;-42
2021/12/15 07:02:03;;;;;;;62.93;34.25;;;;;;;;;;1872607;75;21043;-42
2021/12/15 07:04:32;;;;;;;64.75;35.48;;;;;;;;;;1872808;77;21082;-42
2021/12/15 07:07:02;;;;;;;61.63;34.48;;;;;;;;;;1872728;77;21047;-42
2021/12/15 07:09:31;;;;;;;64.97;34.23;;;;;;;;;;1872691;77;21003;-42
2021/12/15 07:12:00;;;;;;;55.10;34.00;;;;;;;;;;1872744;77;21089;-42
2021/12/15 07:14:29;;;;;;;60.17;34.73;;;;;;;;;;1872762;76;21011;-41
2021/12/15 07:16:58;;;;;;;64.50;35.20;;;;;;;;;;1872718;76;21031;-42
2021/12/15 07:22:30;;;;;;;57.40;32.42;;;;;;;;;;1872715;75;21469;-43
2021/12/15 07:24:32;;;;;;;56.47;32.87;;;;;;;;;;1864566;76;21618;-42
2021/12/15 07:27:02;;;;;;;59.73;33.55;;;;;;;;;;1872621;77;21732;-42
2021/12/15 07:29:31;;;;;;;68.15;38.23;;;;;;;;;;1872790;76;21031;-42
2021/12/15 07:32:00;;;;;;;56.10;33.78;;;;;;;;;;1872649;75;21039;-41
2021/12/15 07:34:29;;;;;;;79.00;35.70;;;;;;;;;;1872681;76;21035;-42
2021/12/15 07:36:58;;;;;;;56.60;33.85;;;;;;;;;;1887088;75;21066;-42
2021/12/15 07:39:27;;;;;;;61.75;34.95;;;;;;;;;;1891788;76;21099;-41
2021/12/15 07:42:05;;;;;;;57.75;32.23;;;;;;;;;;1890145;76;21093;-42
2021/12/15 07:44:26;;;;;;;51.88;31.35;;;;;;;;;;1889896;75;21559;-42
2021/12/15 07:46:55;;;;;;;54.73;30.02;;;;;;;;;;1891103;76;21042;-42
2021/12/15 07:49:24;;;;;;;49.00;28.98;;;;;;;;;;1890904;76;21014;-42
2021/12/15 07:52:00;;;;;;;51.50;28.20;;;;;;;;;;1891092;76;21034;-43
2021/12/15 07:54:24;;;;;;;55.85;28.42;;;;;;;;;;1890697;75;21526;-41
2021/12/15 07:56:53;;;;;;;53.15;28.12;;;;;;;;;;1890899;76;21046;-43
2021/12/15 07:59:21;;;;;;;49.53;27.05;;;;;;;;;;1891125;76;21144;-42
2021/12/15 08:01:51;;;;;;;49.25;27.77;;;;;;;;;;1890893;76;21084;-41
2021/12/15 08:04:20;;;;;;;51.05;28.92;;;;;;;;;;1891124;76;21030;-41
2021/12/15 08:06:49;;;;;;;53.30;29.35;;;;;;;;;;1891218;76;21019;-41
2021/12/15 08:09:18;;;;;;;48.92;28.92;;;;;;;;;;1891129;76;21014;-42
2021/12/15 08:11:47;;;;;;;48.70;28.98;;;;;;;;;;1891197;76;21015;-40
2021/12/15 08:14:16;;;;;;;48.25;29.60;;;;;;;;;;1891268;76;21160;-41
2021/12/15 08:16:44;;;;;;;49.27;28.35;;;;;;;;;;1891202;76;21092;-41
2021/12/15 08:19:15;;;;;;;47.48;28.55;;;;;;;;;;1891167;76;21113;-45
2021/12/15 08:21:44;;;;;;;51.18;27.30;;;;;;;;;;1890791;76;21007;-46
2021/12/15 08:24:13;;;;;;;48.50;26.40;;;;;;;;;;1891168;76;21136;-44
2021/12/15 08:26:41;;;;;;;49.13;27.15;;;;;;;;;;1891142;76;21034;-44
2021/12/15 08:29:11;;;;;;;42.45;26.00;;;;;;;;;;1891114;76;21141;-44
2021/12/15 08:31:40;;;;;;;49.05;27.65;;;;;;;;;;1891191;76;21098;-45
2021/12/15 08:34:09;;;;;;;54.70;29.52;;;;;;;;;;1891051;76;21007;-45
2021/12/15 08:36:38;;;;;;;54.13;28.73;;;;;;;;;;1883577;76;21054;-45
2021/12/15 08:39:08;;;;;;;48.95;28.65;;;;;;;;;;1872176;77;21027;-43
2021/12/15 08:41:37;;;;;;;50.35;27.07;;;;;;;;;;1872048;77;21434;-43
2021/12/15 08:44:08;;;;;;;45.20;25.48;;;;;;;;;;1871219;75;21098;-42
2021/12/15 08:46:39;;;;;;;38.85;23.35;;;;;;;;;;1882604;75;21031;-42
2021/12/15 08:49:09;;;;;;;39.42;24.47;;;;;;;;;;1889569;75;21136;-40
2021/12/15 08:51:38;;;;;;;42.78;24.43;;;;;;;;;;1883953;75;21162;-42
2021/12/15 08:54:08;;;;;;;44.63;26.65;;;;;;;;;;1878993;75;21017;-41
2021/12/15 08:56:37;;;;;;;40.67;27.55;;;;;;;;;;1872037;77;21530;-41
2021/12/15 08:59:06;;;;;;;47.85;28.05;;;;;;;;;;1886363;75;21066;-42
2021/12/15 09:01:36;;;;;;;48.20;27.50;;;;;;;;;;1887166;75;21103;-41
2021/12/15 09:04:05;;;;;;;41.85;26.23;;;;;;;;;;1885884;75;21058;-43
2021/12/15 09:06:35;;;;;;;40.25;26.15;;;;;;;;;;1889581;75;21285;-42
2021/12/15 09:09:05;;;;;;;44.20;25.48;;;;;;;;;;1880789;75;21040;-43
2021/12/15 09:11:34;;;;;;;44.53;25.05;;;;;;;;;;1871764;75;21092;-44
2021/12/15 09:14:03;;;;;;;38.92;23.30;;;;;;;;;;1871516;76;21205;-43
2021/12/15 09:16:32;;;;;;;43.68;24.75;;;;;;;;;;1871700;76;21060;-43
2021/12/15 09:19:01;;;;;;;40.25;22.73;;;;;;;;;;1871664;77;21072;-43
2021/12/15 09:21:31;;;;;;;41.48;22.93;;;;;;;;;;1872008;75;21045;-42
2021/12/15 09:24:00;;;;;;;38.00;20.90;;;;;;;;;;1902299;75;21573;-44
2021/12/15 09:26:29;;;;;;;37.45;22.00;;;;;;;;;;1902259;75;21203;-44
2021/12/15 09:28:58;;;;;;;35.40;22.87;;;;;;;;;;1902561;75;21094;-44
2021/12/15 09:31:27;;;;;;;34.35;20.57;;;;;;;;;;1902685;75;21054;-43
2021/12/15 09:33:56;;;;;;;41.63;24.18;;;;;;;;;;1902421;75;21110;-43
2021/12/15 09:36:25;;;;;;;38.60;22.58;;;;;;;;;;1901941;75;21145;-43
2021/12/15 09:38:56;;;;;;;46.35;22.60;;;;;;;;;;1897632;75;21024;-43
2021/12/15 09:41:25;;;;;;;40.33;22.70;;;;;;;;;;1897293;75;20999;-43
2021/12/15 09:43:56;;;;;;;48.68;26.57;;;;;;;;;;1897511;75;21027;-43
2021/12/15 09:46:41;;;;;;;27.62;17.82;;;;;;;;;;1897581;75;21594;-44
2021/12/15 09:57:27;;;;;;;28.42;18.40;;;;;;;;;;1897435;75;21156;-43
2021/12/15 10:02:48;;;;;;;32.40;18.17;;;;;;;;;;1897273;75;21019;-42
2021/12/15 10:05:30;;;;;;;31.12;18.27;;;;;;;;;;1896603;75;21043;-42
2021/12/15 10:19:09;;;;;;;27.07;16.17;;;;;;;;;;1809109;77;21115;-42
2021/12/15 10:21:29;;;;;;;29.77;19.45;;;;;;;;;;1863983;75;21577;-43
2021/12/15 10:23:57;;;;;;;26.37;16.60;;;;;;;;;;1867076;77;20997;-43
2021/12/15 10:26:26;;;;;;;31.45;17.65;;;;;;;;;;1867274;76;21041;-42
2021/12/15 10:28:55;;;;;;;31.05;18.42;;;;;;;;;;1867269;75;21155;-42
2021/12/15 10:31:27;;;;;;;37.48;18.55;;;;;;;;;;1867141;77;21322;-42
2021/12/15 10:33:59;;;;;;;34.53;20.17;;;;;;;;;;1867195;76;21534;-43
2021/12/15 10:36:30;;;;;;;29.12;17.35;;;;;;;;;;1867276;75;21009;-43
2021/12/15 10:39:03;;;;;;;31.40;17.27;;;;;;;;;;1871764;75;21090;-44
2021/12/15 10:41:33;;;;;;;23.75;14.30;;;;;;;;;;1872096;77;21090;-41
2021/12/15 10:44:06;;;;;;;28.15;14.40;;;;;;;;;;1872137;77;21058;-43
2021/12/15 10:46:39;;;;;;;25.37;14.63;;;;;;;;;;1871852;76;21071;-43
2021/12/15 10:49:10;;;;;;;26.75;14.40;;;;;;;;;;1871311;76;21082;-43
2021/12/15 10:51:48;;;;;;;29.77;15.50;;;;;;;;;;1870903;75;21085;-42
2021/12/15 10:54:14;;;;;;;25.25;16.07;;;;;;;;;;1871485;76;21090;-43
2021/12/15 10:56:44;;;;;;;28.23;16.85;;;;;;;;;;1871924;76;21148;-42
2021/12/15 10:59:14;;;;;;;27.67;16.27;;;;;;;;;;1871753;76;21066;-42
2021/12/15 11:01:56;;;;;;;46.20;17.85;;;;;;;;;;1871703;77;21508;-41
2021/12/15 11:04:26;;;;;;;23.75;14.63;;;;;;;;;;1871979;77;21023;-44
2021/12/15 11:07:02;;;;;;;24.05;13.93;;;;;;;;;;1871946;77;21098;-44
2021/12/15 11:09:36;;;;;;;21.93;12.63;;;;;;;;;;1872076;77;21008;-42
2021/12/15 11:12:06;;;;;;;28.30;14.98;;;;;;;;;;1872168;76;21144;-42
2021/12/15 11:14:36;;;;;;;24.82;13.53;;;;;;;;;;1871462;76;21089;-42
2021/12/15 11:17:06;;;;;;;27.75;15.30;;;;;;;;;;1872044;77;21070;-43
2021/12/15 11:19:38;;;;;;;21.23;12.68;;;;;;;;;;1872127;77;21039;-42
2021/12/15 11:22:25;;;;;;;21.30;13.65;;;;;;;;;;1871834;76;21537;-42
2021/12/15 11:24:54;;;;;;;29.37;17.37;;;;;;;;;;1872069;77;21180;-42
2021/12/15 11:27:22;;;;;;;26.82;14.98;;;;;;;;;;1872137;77;21094;-43
2021/12/15 11:29:51;;;;;;;24.90;13.18;;;;;;;;;;1872566;75;21022;-43
2021/12/15 11:32:38;;;;;;;21.45;13.62;;;;;;;;;;1872588;75;21137;-43
2021/12/15 11:35:11;;;;;;;20.40;12.47;;;;;;;;;;1871900;75;21120;-43
2021/12/15 11:37:44;;;;;;;24.75;14.40;;;;;;;;;;1871953;75;21042;-44
2021/12/15 11:40:13;;;;;;;47.13;15.18;;;;;;;;;;1870940;75;21092;-44
2021/12/15 11:42:43;;;;;;;24.20;12.95;;;;;;;;;;1871662;75;21469;-45
2021/12/15 11:45:13;;;;;;;21.57;13.22;;;;;;;;;;1871559;77;21097;-45
2021/12/15 11:47:42;;;;;;;22.20;12.47;;;;;;;;;;1872080;75;21688;-44
2021/12/15 11:50:12;;;;;;;23.75;12.90;;;;;;;;;;1872702;76;21107;-44
2021/12/15 11:52:42;;;;;;;25.97;13.25;;;;;;;;;;1872786;77;21029;-45
2021/12/15 11:55:30;;;;;;;28.25;13.40;;;;;;;;;;1872891;77;21409;-44
2021/12/15 11:57:58;;;;;;;19.65;10.70;;;;;;;;;;1872869;75;21033;-45
2021/12/15 12:00:29;;;;;;;23.92;13.18;;;;;;;;;;1872752;76;21045;-44
2021/12/15 12:02:59;;;;;;;20.95;11.93;;;;;;;;;;1872895;77;21473;-45
2021/12/15 12:05:29;;;;;;;25.00;13.30;;;;;;;;;;1872761;77;21034;-45
2021/12/15 12:07:59;;;;;;;25.25;12.20;;;;;;;;;;1872891;77;21119;-45
2021/12/15 12:10:46;;;;;;;20.52;12.10;;;;;;;;;;1872821;76;21491;-45
2021/12/15 12:13:26;;;;;;;24.12;12.65;;;;;;;;;;1872996;77;21472;-45
2021/12/15 12:15:50;;;;;;;19.55;12.28;;;;;;;;;;1871183;77;21053;-45
2021/12/15 12:18:20;;;;;;;19.23;11.38;;;;;;;;;;1872894;76;21033;-45
2021/12/15 12:20:50;;;;;;;20.80;12.70;;;;;;;;;;1872767;75;21465;-45
2021/12/15 12:23:20;;;;;;;21.40;12.65;;;;;;;;;;1872855;76;21025;-45
2021/12/15 12:25:50;;;;;;;26.97;13.58;;;;;;;;;;1872822;76;21469;-44
2021/12/15 12:28:23;;;;;;;25.50;15.10;;;;;;;;;;1872783;75;21111;-45
2021/12/15 12:30:53;;;;;;;27.95;13.18;;;;;;;;;;1872813;75;21542;-45
2021/12/15 12:33:22;;;;;;;23.90;13.20;;;;;;;;;;1872120;75;21121;-46
2021/12/15 12:35:52;;;;;;;21.35;12.25;;;;;;;;;;1872874;76;21010;-45
2021/12/15 12:38:26;;;;;;;21.68;12.55;;;;;;;;;;1872806;75;21057;-45
2021/12/15 12:40:59;;;;;;;23.95;13.70;;;;;;;;;;1872730;75;21065;-45
2021/12/15 12:43:29;;;;;;;22.77;13.05;;;;;;;;;;1872813;77;21131;-45
2021/12/15 12:46:14;;;;;;;21.23;12.88;;;;;;;;;;1872843;75;21002;-45
2021/12/15 12:48:56;;;;;;;23.20;13.38;;;;;;;;;;1871109;76;21053;-44
2021/12/15 12:59:34;;;;;;;26.77;13.15;;;;;;;;;;1872728;77;21057;-44
2021/12/15 13:02:10;;;;;;;26.60;14.43;;;;;;;;;;1872682;76;21052;-45
2021/12/15 13:04:39;;;;;;;31.25;14.05;;;;;;;;;;1872203;76;21549;-45
2021/12/15 13:07:08;;;;;;;36.55;17.42;;;;;;;;;;1872260;76;21061;-45
2021/12/15 13:09:44;;;;;;;27.30;16.07;;;;;;;;;;1872726;77;21026;-45
2021/12/15 13:12:20;;;;;;;24.75;15.68;;;;;;;;;;1872775;75;21100;-45
2021/12/15 13:14:49;;;;;;;27.95;15.63;;;;;;;;;;1872734;75;20997;-43
2021/12/15 13:17:21;;;;;;;26.25;14.73;;;;;;;;;;1872667;75;21045;-43
2021/12/15 13:19:50;;;;;;;28.40;14.83;;;;;;;;;;1872790;75;21511;-43
2021/12/15 13:30:55;;;;;;;26.73;14.98;;;;;;;;;;1872981;76;21104;-45
2021/12/15 13:33:28;;;;;;;36.30;18.62;;;;;;;;;;1872954;75;21033;-43
2021/12/15 13:35:59;;;;;;;35.45;21.15;;;;;;;;;;1869707;76;21484;-43
2021/12/15 13:38:32;;;;;;;36.50;20.12;;;;;;;;;;1872307;75;21093;-43
2021/12/15 13:41:06;;;;;;;41.50;23.38;;;;;;;;;;1872871;76;21049;-43
2021/12/15 13:43:34;;;;;;;39.38;23.27;;;;;;;;;;1872352;76;21366;-44
2021/12/15 13:46:03;;;;;;;45.28;24.32;;;;;;;;;;1872590;76;21178;-43
2021/12/15 13:48:49;;;;;;;43.98;24.18;;;;;;;;;;1872789;75;21034;-44
2021/12/15 13:51:19;;;;;;;48.75;23.47;;;;;;;;;;1872726;77;21123;-44
2021/12/15 13:53:48;;;;;;;49.35;23.73;;;;;;;;;;1869405;77;21001;-44
2021/12/15 13:56:17;;;;;;;40.38;23.45;;;;;;;;;;1872848;75;21105;-44
2021/12/15 13:58:46;;;;;;;47.10;24.10;;;;;;;;;;1872959;75;21037;-44
2021/12/15 14:01:16;;;;;;;47.78;22.67;;;;;;;;;;1872979;75;21034;-44
2021/12/15 14:03:46;;;;;;;37.75;20.55;;;;;;;;;;1872837;77;21448;-43
2021/12/15 14:06:17;;;;;;;42.38;21.30;;;;;;;;;;1872890;75;21013;-43
2021/12/15 14:08:50;;;;;;;41.35;22.10;;;;;;;;;;1872795;75;21468;-46
2021/12/15 14:11:20;;;;;;;51.20;27.20;;;;;;;;;;1873053;75;21030;-44
2021/12/15 14:13:51;;;;;;;46.30;27.70;;;;;;;;;;1873036;77;21058;-44
2021/12/15 14:16:36;;;;;;;52.15;26.90;;;;;;;;;;1872966;75;21095;-43
2021/12/15 14:19:06;;;;;;;66.90;29.80;;;;;;;;;;1873022;75;21057;-43
2021/12/15 14:21:37;;;;;;;40.17;22.77;;;;;;;;;;1872920;75;21033;-43
2021/12/15 14:24:05;;;;;;;31.90;18.90;;;;;;;;;;1872919;75;21446;-43
2021/12/15 14:26:35;;;;;;;36.58;18.92;;;;;;;;;;1872987;76;21010;-44
2021/12/15 14:29:05;;;;;;;32.83;19.48;;;;;;;;;;1873029;77;21065;-43
2021/12/15 14:31:35;;;;;;;31.45;18.25;;;;;;;;;;1872975;76;21064;-43
2021/12/15 14:34:08;;;;;;;32.75;16.82;;;;;;;;;;1872894;75;21026;-43
2021/12/15 14:36:38;;;;;;;28.73;16.70;;;;;;;;;;1873000;75;21025;-44
2021/12/15 14:39:11;;;;;;;38.75;18.12;;;;;;;;;;1872999;75;21460;-43
2021/12/15 14:41:41;;;;;;;38.33;19.12;;;;;;;;;;1872795;75;21006;-45
2021/12/15 14:44:14;;;;;;;51.05;25.88;;;;;;;;;;1872981;76;21026;-44
2021/12/15 14:46:46;;;;;;;46.75;23.25;;;;;;;;;;1872905;75;21029;-43
2021/12/15 14:49:17;;;;;;;46.37;23.07;;;;;;;;;;1872962;76;21022;-43
2021/12/15 14:51:50;;;;;;;37.17;20.10;;;;;;;;;;1872916;77;21479;-44
2021/12/15 14:54:19;;;;;;;30.20;17.90;;;;;;;;;;1872823;75;21542;-43
2021/12/15 14:56:52;;;;;;;29.35;16.77;;;;;;;;;;1872913;75;21029;-44
2021/12/15 14:59:22;;;;;;;28.62;17.98;;;;;;;;;;1872919;75;21037;-43
2021/12/15 15:01:52;;;;;;;27.67;15.88;;;;;;;;;;1872851;76;21022;-44
2021/12/15 15:04:25;;;;;;;27.05;15.63;;;;;;;;;;1872821;75;21041;-43
2021/12/15 15:06:53;;;;;;;27.55;15.78;;;;;;;;;;1872438;75;21507;-43
2021/12/15 15:09:31;;;;;;;21.42;13.62;;;;;;;;;;1872854;76;21030;-44
2021/12/15 15:12:00;;;;;;;21.68;14.10;;;;;;;;;;1872784;76;21503;-44
2021/12/15 15:14:30;;;;;;;17.57;10.30;;;;;;;;;;1872827;75;21045;-44
2021/12/15 15:16:59;;;;;;;17.80;10.40;;;;;;;;;;1872887;77;21033;-43
2021/12/15 15:19:28;;;;;;;19.10;10.68;;;;;;;;;;1872900;75;21034;-43
2021/12/15 15:21:59;;;;;;;17.30;10.63;;;;;;;;;;1872755;77;21038;-43
2021/12/15 15:24:29;;;;;;;18.52;11.33;;;;;;;;;;1872814;76;21644;-43
2021/12/15 15:26:59;;;;;;;22.98;11.68;;;;;;;;;;1872880;77;21002;-43
2021/12/15 15:29:32;;;;;;;15.45;10.30;;;;;;;;;;1871227;77;21034;-43
2021/12/15 15:32:08;;;;;;;18.80;10.13;;;;;;;;;;1872914;77;21100;-43
2021/12/15 15:34:37;;;;;;;21.33;11.70;;;;;;;;;;1872024;77;21108;-43
2021/12/15 15:37:13;;;;;;;19.00;12.03;;;;;;;;;;1838270;77;21055;-42
2021/12/15 15:39:42;;;;;;;26.33;11.73;;;;;;;;;;1879262;75;21580;-44
2021/12/15 15:42:12;;;;;;;18.87;11.83;;;;;;;;;;1890953;76;21040;-44
2021/12/15 15:44:41;;;;;;;20.82;11.68;;;;;;;;;;1890029;75;21149;-44
2021/12/15 15:47:20;;;;;;;22.58;13.20;;;;;;;;;;1890892;75;21518;-43
2021/12/15 15:49:57;;;;;;;25.55;14.98;;;;;;;;;;1891012;75;21039;-44
2021/12/15 15:52:26;;;;;;;25.25;13.60;;;;;;;;;;1890117;75;21028;-43
2021/12/15 15:54:55;;;;;;;19.17;12.20;;;;;;;;;;1891099;76;21106;-45
2021/12/15 15:57:25;;;;;;;21.48;12.20;;;;;;;;;;1922993;74;21123;-44